sensor_id;sensor_type;location;lat;lon;timestamp;pressure;altitude;pressure_sealevel;temperature;humidity
77590;BME280;66746;51.328;12.332;2024-02-26T00:00:29;99140.53;;;3.68;100.00
77590;BME280;66746;51.328;12.332;2024-02-26T00:02:56;99134.38;;;3.66;100.00
77590;BME280;66746;51.328;12.332;2024-02-26T00:05:25;99131.69;;;3.66;100.00
77590;BME280;66746;51.328;12.332;2024-02-26T00:07:51;99130.97;;;3.59;100.00
77590;BME280;66746;51.328;12.332;2024-02-26T00:10:22;99122.88;;;3.61;100.00
77590;BME280;66746;51.328;12.332;2024-02-26T00:12:49;99126.50;;;3.60;100.00
77590;BME280;66746;51.328;12.332;2024-02-26T00:15:15;99124.53;;;3.65;100.00
77590;BME280;66746;51.328;12.332;2024-02-26T00:17:42;99108.69;;;3.57;100.00
77590;BME280;66746;51.328;12.332;2024-02-26T00:20:10;99117.34;;;3.67;100.00
77590;BME280;66746;51.328;12.332;2024-02-26T00:22:37;99118.06;;;3.72;100.00
77590;BME280;66746;51.328;12.332;2024-02-26T00:25:05;99116.22;;;3.74;100.00
77590;BME280;66746;51.328;12.332;2024-02-26T00:27:33;99118.91;;;3.74;100.00
77590;BME280;66746;51.328;12.332;2024-02-26T00:29:59;99111.88;;;3.70;100.00
77590;BME280;66746;51.328;12.332;2024-02-26T00:32:26;99114.66;;;3.67;100.00
77590;BME280;66746;51.328;12.332;2024-02-26T00:34:53;99111.03;;;3.68;100.00
77590;BME280;66746;51.328;12.332;2024-02-26T00:37:19;99114.66;;;3.67;100.00
77590;BME280;66746;51.328;12.332;2024-02-26T00:39:46;99098.81;;;3.59;100.00
77590;BME280;66746;51.328;12.332;2024-02-26T00:42:12;99103.38;;;3.56;100.00
77590;BME280;66746;51.328;12.332;2024-02-26T00:44:40;99098.09;;;3.53;100.00
77590;BME280;66746;51.328;12.332;2024-02-26T00:47:07;99100.41;;;3.65;100.00
77590;BME280;66746;51.328;12.332;2024-02-26T00:49:34;99093.31;;;3.64;100.00
77590;BME280;66746;51.328;12.332;2024-02-26T00:52:00;99090.59;;;3.66;100.00
77590;BME280;66746;51.328;12.332;2024-02-26T00:54:27;99101.16;;;3.70;100.00
77590;BME280;66746;51.328;12.332;2024-02-26T00:56:54;99091.47;;;3.66;100.00
77590;BME280;66746;51.328;12.332;2024-02-26T00:59:20;99085.91;;;3.72;100.00
77590;BME280;66746;51.328;12.332;2024-02-26T01:01:48;99096.06;;;3.61;100.00
77590;BME280;66746;51.328;12.332;2024-02-26T01:04:17;99084.41;;;3.64;100.00
77590;BME280;66746;51.328;12.332;2024-02-26T01:06:43;99087.91;;;3.66;100.00
77590;BME280;66746;51.328;12.332;2024-02-26T01:09:10;99090.66;;;3.64;100.00
77590;BME280;66746;51.328;12.332;2024-02-26T01:11:37;99096.00;;;3.64;100.00
77590;BME280;66746;51.328;12.332;2024-02-26T01:14:03;99086.31;;;3.58;100.00
77590;BME280;66746;51.328;12.332;2024-02-26T01:16:30;99081.31;;;3.48;100.00
77590;BME280;66746;51.328;12.332;2024-02-26T01:18:57;99084.94;;;3.45;100.00
77590;BME280;66746;51.328;12.332;2024-02-26T01:21:24;99076.97;;;3.44;100.00
77590;BME280;66746;51.328;12.332;2024-02-26T01:23:52;99077.91;;;3.41;100.00
77590;BME280;66746;51.328;12.332;2024-02-26T01:26:19;99070.84;;;3.39;100.00
77590;BME280;66746;51.328;12.332;2024-02-26T01:28:46;99077.09;;;3.39;100.00
77590;BME280;66746;51.328;12.332;2024-02-26T01:31:12;99069.22;;;3.33;100.00
77590;BME280;66746;51.328;12.332;2024-02-26T01:33:39;99073.50;;;3.39;100.00
77590;BME280;66746;51.328;12.332;2024-02-26T01:36:07;99067.91;;;3.48;100.00
77590;BME280;66746;51.328;12.332;2024-02-26T01:38:33;99063.38;;;3.50;100.00
77590;BME280;66746;51.328;12.332;2024-02-26T01:41:00;99061.59;;;3.49;100.00
77590;BME280;66746;51.328;12.332;2024-02-26T01:43:26;99051.41;;;3.62;100.00
77590;BME280;66746;51.328;12.332;2024-02-26T01:45:53;99049.88;;;3.53;100.00
77590;BME280;66746;51.328;12.332;2024-02-26T01:48:20;99042.78;;;3.52;100.00
77590;BME280;66746;51.328;12.332;2024-02-26T01:50:47;99044.63;;;3.50;100.00
77590;BME280;66746;51.328;12.332;2024-02-26T01:53:16;99036.72;;;3.45;100.00
77590;BME280;66746;51.328;12.332;2024-02-26T01:55:46;99044.81;;;3.44;100.00
77590;BME280;66746;51.328;12.332;2024-02-26T01:58:13;99042.19;;;3.41;100.00
77590;BME280;66746;51.328;12.332;2024-02-26T02:00:40;99035.16;;;3.37;100.00
77590;BME280;66746;51.328;12.332;2024-02-26T02:03:07;99033.56;;;3.31;100.00
77590;BME280;66746;51.328;12.332;2024-02-26T02:05:36;99036.28;;;3.30;100.00
77590;BME280;66746;51.328;12.332;2024-02-26T02:08:03;99030.94;;;3.30;100.00
77590;BME280;66746;51.328;12.332;2024-02-26T02:10:31;99029.38;;;3.23;100.00
77590;BME280;66746;51.328;12.332;2024-02-26T02:12:58;99031.78;;;3.32;100.00
77590;BME280;66746;51.328;12.332;2024-02-26T02:15:24;99024.88;;;3.23;100.00
77590;BME280;66746;51.328;12.332;2024-02-26T02:17:53;99017.66;;;3.27;100.00
77590;BME280;66746;51.328;12.332;2024-02-26T02:20:24;99024.81;;;3.26;100.00
77590;BME280;66746;51.328;12.332;2024-02-26T02:22:51;99025.88;;;3.21;100.00
77590;BME280;66746;51.328;12.332;2024-02-26T02:25:17;99034.06;;;3.15;100.00
77590;BME280;66746;51.328;12.332;2024-02-26T02:27:46;99040.16;;;3.20;100.00
77590;BME280;66746;51.328;12.332;2024-02-26T02:30:14;99045.63;;;3.17;100.00
77590;BME280;66746;51.328;12.332;2024-02-26T02:32:41;99038.59;;;3.13;100.00
77590;BME280;66746;51.328;12.332;2024-02-26T02:35:08;99040.63;;;3.05;100.00
77590;BME280;66746;51.328;12.332;2024-02-26T02:37:36;99039.78;;;3.03;100.00
77590;BME280;66746;51.328;12.332;2024-02-26T02:40:04;99043.19;;;3.08;100.00
77590;BME280;66746;51.328;12.332;2024-02-26T02:42:31;99037.00;;;3.06;100.00
77590;BME280;66746;51.328;12.332;2024-02-26T02:44:58;99043.13;;;3.11;100.00
77590;BME280;66746;51.328;12.332;2024-02-26T02:47:24;99045.97;;;3.05;100.00
77590;BME280;66746;51.328;12.332;2024-02-26T02:49:51;99051.31;;;3.05;100.00
77590;BME280;66746;51.328;12.332;2024-02-26T02:52:18;99054.91;;;3.04;100.00
77590;BME280;66746;51.328;12.332;2024-02-26T02:54:46;99057.75;;;2.98;100.00
77590;BME280;66746;51.328;12.332;2024-02-26T02:57:12;99057.84;;;2.95;100.00
77590;BME280;66746;51.328;12.332;2024-02-26T02:59:39;99068.50;;;2.96;100.00
77590;BME280;66746;51.328;12.332;2024-02-26T03:02:06;99064.28;;;2.89;100.00
77590;BME280;66746;51.328;12.332;2024-02-26T03:04:33;99071.41;;;2.89;100.00
77590;BME280;66746;51.328;12.332;2024-02-26T03:06:59;99073.19;;;2.90;100.00
77590;BME280;66746;51.328;12.332;2024-02-26T03:09:27;99076.75;;;2.89;100.00
77590;BME280;66746;51.328;12.332;2024-02-26T03:11:54;99077.88;;;2.82;100.00
77590;BME280;66746;51.328;12.332;2024-02-26T03:14:21;99072.56;;;2.79;100.00
77590;BME280;66746;51.328;12.332;2024-02-26T03:16:47;99078.09;;;2.72;100.00
77590;BME280;66746;51.328;12.332;2024-02-26T03:19:14;99070.16;;;2.69;100.00
77590;BME280;66746;51.328;12.332;2024-02-26T03:21:41;99073.63;;;2.73;100.00
77590;BME280;66746;51.328;12.332;2024-02-26T03:24:12;99074.56;;;2.72;100.00
77590;BME280;66746;51.328;12.332;2024-02-26T03:26:39;99066.47;;;2.74;100.00
77590;BME280;66746;51.328;12.332;2024-02-26T03:29:07;99078.97;;;2.73;100.00
77590;BME280;66746;51.328;12.332;2024-02-26T03:31:33;99077.19;;;2.74;100.00
77590;BME280;66746;51.328;12.332;2024-02-26T03:34:00;99083.44;;;2.72;100.00
77590;BME280;66746;51.328;12.332;2024-02-26T03:36:27;99078.13;;;2.71;100.00
77590;BME280;66746;51.328;12.332;2024-02-26T03:38:53;99082.69;;;2.67;100.00
77590;BME280;66746;51.328;12.332;2024-02-26T03:41:20;99080.94;;;2.66;100.00
77590;BME280;66746;51.328;12.332;2024-02-26T03:43:47;99082.88;;;2.61;100.00
77590;BME280;66746;51.328;12.332;2024-02-26T03:46:15;99075.00;;;2.55;100.00
77590;BME280;66746;51.328;12.332;2024-02-26T03:48:42;99087.31;;;2.61;100.00
77590;BME280;66746;51.328;12.332;2024-02-26T03:51:09;99083.66;;;2.65;100.00
77590;BME280;66746;51.328;12.332;2024-02-26T03:53:36;99083.75;;;2.62;100.00
77590;BME280;66746;51.328;12.332;2024-02-26T03:56:04;99081.13;;;2.59;100.00
77590;BME280;66746;51.328;12.332;2024-02-26T03:58:30;99077.75;;;2.52;100.00
77590;BME280;66746;51.328;12.332;2024-02-26T04:00:57;99092.13;;;2.48;100.00
77590;BME280;66746;51.328;12.332;2024-02-26T04:03:25;99102.06;;;2.43;100.00
77590;BME280;66746;51.328;12.332;2024-02-26T04:05:52;99097.69;;;2.39;100.00
77590;BME280;66746;51.328;12.332;2024-02-26T04:08:19;99091.50;;;2.37;100.00
77590;BME280;66746;51.328;12.332;2024-02-26T04:10:45;99098.00;;;2.29;100.00
77590;BME280;66746;51.328;12.332;2024-02-26T04:13:12;99101.50;;;2.29;100.00
77590;BME280;66746;51.328;12.332;2024-02-26T04:15:38;99098.00;;;2.27;100.00
77590;BME280;66746;51.328;12.332;2024-02-26T04:18:05;99095.25;;;2.30;100.00
77590;BME280;66746;51.328;12.332;2024-02-26T04:20:33;99099.78;;;2.28;100.00
77590;BME280;66746;51.328;12.332;2024-02-26T04:23:00;99101.66;;;2.23;100.00
77590;BME280;66746;51.328;12.332;2024-02-26T04:25:28;99095.53;;;2.20;100.00
77590;BME280;66746;51.328;12.332;2024-02-26T04:27:55;99090.06;;;2.24;100.00
77590;BME280;66746;51.328;12.332;2024-02-26T04:30:22;99082.09;;;2.21;100.00
77590;BME280;66746;51.328;12.332;2024-02-26T04:32:49;99090.13;;;2.23;100.00
77590;BME280;66746;51.328;12.332;2024-02-26T04:35:16;99085.56;;;2.26;100.00
77590;BME280;66746;51.328;12.332;2024-02-26T04:37:44;99088.16;;;2.29;100.00
77590;BME280;66746;51.328;12.332;2024-02-26T04:40:11;99087.16;;;2.33;100.00
77590;BME280;66746;51.328;12.332;2024-02-26T04:42:38;99097.94;;;2.30;100.00
77590;BME280;66746;51.328;12.332;2024-02-26T04:45:05;99092.59;;;2.30;100.00
77590;BME280;66746;51.328;12.332;2024-02-26T04:47:34;99087.19;;;2.32;100.00
77590;BME280;66746;51.328;12.332;2024-02-26T04:50:01;99089.81;;;2.35;100.00
77590;BME280;66746;51.328;12.332;2024-02-26T04:52:28;99089.47;;;2.47;100.00
77590;BME280;66746;51.328;12.332;2024-02-26T04:54:56;99090.50;;;2.41;100.00
77590;BME280;66746;51.328;12.332;2024-02-26T04:57:23;99078.88;;;2.44;100.00
77590;BME280;66746;51.328;12.332;2024-02-26T04:59:52;99074.41;;;2.44;100.00
77590;BME280;66746;51.328;12.332;2024-02-26T05:02:19;99090.94;;;2.58;100.00
77590;BME280;66746;51.328;12.332;2024-02-26T05:04:45;99093.56;;;2.61;100.00
77590;BME280;66746;51.328;12.332;2024-02-26T05:07:13;99094.47;;;2.60;100.00
77590;BME280;66746;51.328;12.332;2024-02-26T05:09:40;99097.13;;;2.60;100.00
77590;BME280;66746;51.328;12.332;2024-02-26T05:12:08;99111.38;;;2.62;100.00
77590;BME280;66746;51.328;12.332;2024-02-26T05:14:34;99112.97;;;2.69;100.00
77590;BME280;66746;51.328;12.332;2024-02-26T05:17:01;99111.19;;;2.68;100.00
77590;BME280;66746;51.328;12.332;2024-02-26T05:19:28;99113.53;;;2.48;100.00
77590;BME280;66746;51.328;12.332;2024-02-26T05:21:56;99104.63;;;2.48;100.00
77590;BME280;66746;51.328;12.332;2024-02-26T05:24:23;99099.16;;;2.52;100.00
77590;BME280;66746;51.328;12.332;2024-02-26T05:26:49;99118.78;;;2.51;100.00
77590;BME280;66746;51.328;12.332;2024-02-26T05:29:17;99114.53;;;2.44;100.00
77590;BME280;66746;51.328;12.332;2024-02-26T05:31:44;99115.38;;;2.46;100.00
77590;BME280;66746;51.328;12.332;2024-02-26T05:34:10;99108.34;;;2.42;100.00
77590;BME280;66746;51.328;12.332;2024-02-26T05:36:37;99120.72;;;2.46;100.00
77590;BME280;66746;51.328;12.332;2024-02-26T05:39:04;99110.88;;;2.48;100.00
77590;BME280;66746;51.328;12.332;2024-02-26T05:41:31;99110.09;;;2.43;100.00
77590;BME280;66746;51.328;12.332;2024-02-26T05:43:59;99113.59;;;2.45;100.00
77590;BME280;66746;51.328;12.332;2024-02-26T05:46:27;99110.22;;;2.37;100.00
77590;BME280;66746;51.328;12.332;2024-02-26T05:48:54;99115.72;;;2.31;100.00
77590;BME280;66746;51.328;12.332;2024-02-26T05:51:21;99107.41;;;2.43;100.00
77590;BME280;66746;51.328;12.332;2024-02-26T05:53:50;99110.03;;;2.46;100.00
77590;BME280;66746;51.328;12.332;2024-02-26T05:56:17;99109.03;;;2.49;100.00
77590;BME280;66746;51.328;12.332;2024-02-26T05:58:43;99110.03;;;2.46;100.00
77590;BME280;66746;51.328;12.332;2024-02-26T06:01:12;99107.34;;;2.45;100.00
77590;BME280;66746;51.328;12.332;2024-02-26T06:03:43;99111.69;;;2.50;100.00
77590;BME280;66746;51.328;12.332;2024-02-26T06:06:10;99108.19;;;2.48;100.00
77590;BME280;66746;51.328;12.332;2024-02-26T06:08:40;99094.97;;;2.41;100.00
77590;BME280;66746;51.328;12.332;2024-02-26T06:11:07;99109.88;;;2.51;100.00
77590;BME280;66746;51.328;12.332;2024-02-26T06:13:34;99104.34;;;2.58;100.00
77590;BME280;66746;51.328;12.332;2024-02-26T06:16:04;99095.50;;;2.56;100.00
77590;BME280;66746;51.328;12.332;2024-02-26T06:18:31;99112.25;;;2.63;100.00
77590;BME280;66746;51.328;12.332;2024-02-26T06:20:59;99100.75;;;2.59;100.00
77590;BME280;66746;51.328;12.332;2024-02-26T06:23:26;99101.44;;;2.67;100.00
77590;BME280;66746;51.328;12.332;2024-02-26T06:25:53;99105.47;;;2.84;100.00
77590;BME280;66746;51.328;12.332;2024-02-26T06:28:20;99101.81;;;2.86;100.00
77590;BME280;66746;51.328;12.332;2024-02-26T06:30:47;99109.56;;;2.97;100.00
77590;BME280;66746;51.328;12.332;2024-02-26T06:33:16;99114.75;;;3.03;100.00
77590;BME280;66746;51.328;12.332;2024-02-26T06:35:43;99117.09;;;3.15;100.00
77590;BME280;66746;51.328;12.332;2024-02-26T06:38:11;99125.09;;;3.16;100.00
77590;BME280;66746;51.328;12.332;2024-02-26T06:40:38;99130.38;;;3.18;100.00
77590;BME280;66746;51.328;12.332;2024-02-26T06:43:05;99129.56;;;3.16;100.00
77590;BME280;66746;51.328;12.332;2024-02-26T06:45:31;99135.69;;;3.21;100.00
77590;BME280;66746;51.328;12.332;2024-02-26T06:47:58;99131.84;;;3.29;100.00
77590;BME280;66746;51.328;12.332;2024-02-26T06:50:25;99133.41;;;3.38;100.00
77590;BME280;66746;51.328;12.332;2024-02-26T06:52:52;99128.53;;;3.52;100.00
77590;BME280;66746;51.328;12.332;2024-02-26T06:55:20;99149.69;;;3.61;100.00
77590;BME280;66746;51.328;12.332;2024-02-26T06:57:48;99144.00;;;3.72;100.00
77590;BME280;66746;51.328;12.332;2024-02-26T07:00:15;99152.28;;;3.93;100.00
77590;BME280;66746;51.328;12.332;2024-02-26T07:02:42;99153.34;;;4.17;100.00
77590;BME280;66746;51.328;12.332;2024-02-26T07:05:09;99158.53;;;4.21;100.00
77590;BME280;66746;51.328;12.332;2024-02-26T07:07:35;99156.44;;;4.32;100.00
77590;BME280;66746;51.328;12.332;2024-02-26T07:10:02;99151.69;;;4.40;100.00
77590;BME280;66746;51.328;12.332;2024-02-26T07:12:31;99142.81;;;4.38;100.00
77590;BME280;66746;51.328;12.332;2024-02-26T07:14:57;99156.63;;;4.53;100.00
77590;BME280;66746;51.328;12.332;2024-02-26T07:17:24;99134.34;;;4.50;100.00
77590;BME280;66746;51.328;12.332;2024-02-26T07:19:51;99143.75;;;4.64;100.00
77590;BME280;66746;51.328;12.332;2024-02-26T07:22:18;99144.69;;;4.89;100.00
77590;BME280;66746;51.328;12.332;2024-02-26T07:24:44;99133.31;;;5.07;100.00
77590;BME280;66746;51.328;12.332;2024-02-26T07:27:11;99152.44;;;5.22;100.00
77590;BME280;66746;51.328;12.332;2024-02-26T07:29:39;99150.91;;;5.40;100.00
77590;BME280;66746;51.328;12.332;2024-02-26T07:32:06;99150.88;;;5.65;100.00
77590;BME280;66746;51.328;12.332;2024-02-26T07:34:32;99139.38;;;5.61;100.00
77590;BME280;66746;51.328;12.332;2024-02-26T07:36:59;99143.56;;;5.68;100.00
77590;BME280;66746;51.328;12.332;2024-02-26T07:39:26;99152.97;;;5.80;100.00
77590;BME280;66746;51.328;12.332;2024-02-26T07:41:52;99159.50;;;5.97;100.00
77590;BME280;66746;51.328;12.332;2024-02-26T07:44:20;99142.63;;;5.94;100.00
77590;BME280;66746;51.328;12.332;2024-02-26T07:46:48;99141.25;;;6.05;100.00
77590;BME280;66746;51.328;12.332;2024-02-26T07:49:15;99142.16;;;6.06;100.00
77590;BME280;66746;51.328;12.332;2024-02-26T07:51:44;99156.00;;;5.95;100.00
77590;BME280;66746;51.328;12.332;2024-02-26T07:54:10;99151.44;;;5.97;100.00
77590;BME280;66746;51.328;12.332;2024-02-26T07:56:37;99159.28;;;6.03;100.00
77590;BME280;66746;51.328;12.332;2024-02-26T07:59:04;99167.06;;;6.11;100.00
77590;BME280;66746;51.328;12.332;2024-02-26T08:01:33;99160.69;;;6.13;100.00
77590;BME280;66746;51.328;12.332;2024-02-26T08:04:04;99167.28;;;6.28;100.00
77590;BME280;66746;51.328;12.332;2024-02-26T08:06:31;99167.09;;;6.33;100.00
77590;BME280;66746;51.328;12.332;2024-02-26T08:09:02;99174.72;;;6.21;99.88
77590;BME280;66746;51.328;12.332;2024-02-26T08:11:28;99187.44;;;6.18;100.00
77590;BME280;66746;51.328;12.332;2024-02-26T08:13:55;99172.56;;;6.08;100.00
77590;BME280;66746;51.328;12.332;2024-02-26T08:16:26;99172.72;;;6.03;100.00
77590;BME280;66746;51.328;12.332;2024-02-26T08:18:53;99175.38;;;6.28;100.00
77590;BME280;66746;51.328;12.332;2024-02-26T08:21:21;99167.28;;;6.28;100.00
77590;BME280;66746;51.328;12.332;2024-02-26T08:23:48;99174.34;;;6.31;100.00
77590;BME280;66746;51.328;12.332;2024-02-26T08:26:15;99175.00;;;6.37;99.25
77590;BME280;66746;51.328;12.332;2024-02-26T08:28:42;99177.28;;;6.48;100.00
77590;BME280;66746;51.328;12.332;2024-02-26T08:31:08;99178.13;;;6.70;98.46
77590;BME280;66746;51.328;12.332;2024-02-26T08:33:36;99170.00;;;7.13;97.67
77590;BME280;66746;51.328;12.332;2024-02-26T08:36:04;99180.16;;;7.28;97.22
77590;BME280;66746;51.328;12.332;2024-02-26T08:38:32;99182.03;;;7.46;94.56
77590;BME280;66746;51.328;12.332;2024-02-26T08:40:58;99181.22;;;7.64;93.67
77590;BME280;66746;51.328;12.332;2024-02-26T08:43:25;99181.22;;;7.84;92.67
77590;BME280;66746;51.328;12.332;2024-02-26T08:45:52;99180.78;;;7.93;91.95
77590;BME280;66746;51.328;12.332;2024-02-26T08:48:19;99182.31;;;7.99;88.23
77590;BME280;66746;51.328;12.332;2024-02-26T08:50:45;99188.69;;;8.17;89.59
77590;BME280;66746;51.328;12.332;2024-02-26T08:53:12;99192.34;;;8.36;87.02
77590;BME280;66746;51.328;12.332;2024-02-26T08:55:51;99192.78;;;8.45;86.03
77590;BME280;66746;51.328;12.332;2024-02-26T08:58:18;99183.03;;;8.60;85.65
77590;BME280;66746;51.328;12.332;2024-02-26T09:00:45;99178.34;;;8.82;85.33
77590;BME280;66746;51.328;12.332;2024-02-26T09:03:11;99182.03;;;8.98;82.50
77590;BME280;66746;51.328;12.332;2024-02-26T09:05:38;99183.91;;;9.32;82.42
77590;BME280;66746;51.328;12.332;2024-02-26T09:08:05;99174.22;;;9.45;81.53
77590;BME280;66746;51.328;12.332;2024-02-26T09:10:32;99182.47;;;9.42;80.58
77590;BME280;66746;51.328;12.332;2024-02-26T09:13:00;99181.66;;;9.74;78.17
77590;BME280;66746;51.328;12.332;2024-02-26T09:15:27;99173.94;;;9.83;77.65
77590;BME280;66746;51.328;12.332;2024-02-26T09:17:53;99176.44;;;10.04;76.84
77590;BME280;66746;51.328;12.332;2024-02-26T09:20:22;99167.19;;;10.08;75.96
77590;BME280;66746;51.328;12.332;2024-02-26T09:22:49;99163.06;;;10.18;74.89
77590;BME280;66746;51.328;12.332;2024-02-26T09:25:16;99165.84;;;10.32;74.29
77590;BME280;66746;51.328;12.332;2024-02-26T09:27:42;99160.09;;;10.38;73.40
77590;BME280;66746;51.328;12.332;2024-02-26T09:30:14;99167.09;;;10.57;72.15
77590;BME280;66746;51.328;12.332;2024-02-26T09:32:40;99159.97;;;10.56;72.00
77590;BME280;66746;51.328;12.332;2024-02-26T09:35:07;99166.94;;;10.45;73.13
77590;BME280;66746;51.328;12.332;2024-02-26T09:37:34;99163.97;;;10.49;73.75
77590;BME280;66746;51.328;12.332;2024-02-26T09:40:01;99162.91;;;10.52;72.96
77590;BME280;66746;51.328;12.332;2024-02-26T09:42:31;99172.19;;;10.48;73.62
77590;BME280;66746;51.328;12.332;2024-02-26T09:45:00;99157.50;;;10.36;72.43
77590;BME280;66746;51.328;12.332;2024-02-26T09:47:31;99165.81;;;10.49;72.70
77590;BME280;66746;51.328;12.332;2024-02-26T09:49:59;99169.22;;;10.68;71.65
77590;BME280;66746;51.328;12.332;2024-02-26T09:52:28;99159.25;;;10.84;71.75
77590;BME280;66746;51.328;12.332;2024-02-26T09:54:57;99166.25;;;10.57;69.14
77590;BME280;66746;51.328;12.332;2024-02-26T09:57:24;99173.50;;;10.56;71.07
77590;BME280;66746;51.328;12.332;2024-02-26T09:59:54;99170.81;;;10.56;71.14
77590;BME280;66746;51.328;12.332;2024-02-26T10:02:25;99177.63;;;10.63;71.21
77590;BME280;66746;51.328;12.332;2024-02-26T10:04:54;99175.53;;;10.84;71.79
77590;BME280;66746;51.328;12.332;2024-02-26T10:07:21;99174.44;;;10.87;69.44
77590;BME280;66746;51.328;12.332;2024-02-26T10:09:48;99167.28;;;11.01;68.26
77590;BME280;66746;51.328;12.332;2024-02-26T10:12:16;99169.03;;;11.02;67.98
77590;BME280;66746;51.328;12.332;2024-02-26T10:14:46;99171.09;;;11.13;67.94
77590;BME280;66746;51.328;12.332;2024-02-26T10:17:22;99165.91;;;11.24;66.13
77590;BME280;66746;51.328;12.332;2024-02-26T10:19:49;99174.09;;;11.08;66.85
77590;BME280;66746;51.328;12.332;2024-02-26T10:22:17;99172.03;;;10.82;66.30
77590;BME280;66746;51.328;12.332;2024-02-26T10:24:46;99170.78;;;11.03;68.20
77590;BME280;66746;51.328;12.332;2024-02-26T10:27:14;99164.47;;;11.03;66.15
77590;BME280;66746;51.328;12.332;2024-02-26T10:29:41;99170.75;;;11.19;68.00
77590;BME280;66746;51.328;12.332;2024-02-26T10:32:08;99164.09;;;11.24;67.33
77590;BME280;66746;51.328;12.332;2024-02-26T10:34:35;99180.38;;;11.24;67.17
77590;BME280;66746;51.328;12.332;2024-02-26T10:37:02;99169.72;;;11.21;66.51
77590;BME280;66746;51.328;12.332;2024-02-26T10:39:30;99181.78;;;11.31;66.55
77590;BME280;66746;51.328;12.332;2024-02-26T10:41:57;99176.19;;;11.19;64.88
77590;BME280;66746;51.328;12.332;2024-02-26T10:44:25;99186.47;;;11.28;65.95
77590;BME280;66746;51.328;12.332;2024-02-26T10:46:52;99177.22;;;11.16;66.92
77590;BME280;66746;51.328;12.332;2024-02-26T10:49:21;99190.53;;;11.21;67.63
77590;BME280;66746;51.328;12.332;2024-02-26T10:51:55;99181.38;;;11.08;68.12
77590;BME280;66746;51.328;12.332;2024-02-26T10:54:24;99182.16;;;11.10;66.68
77590;BME280;66746;51.328;12.332;2024-02-26T10:56:53;99187.72;;;11.22;66.39
77590;BME280;66746;51.328;12.332;2024-02-26T10:59:20;99194.22;;;11.20;65.77
77590;BME280;66746;51.328;12.332;2024-02-26T11:01:48;99184.91;;;11.24;65.11
77590;BME280;66746;51.328;12.332;2024-02-26T11:04:15;99181.16;;;11.26;65.50
77590;BME280;66746;51.328;12.332;2024-02-26T11:06:47;99193.31;;;11.35;66.60
77590;BME280;66746;51.328;12.332;2024-02-26T11:09:14;99199.44;;;11.38;66.76
77590;BME280;66746;51.328;12.332;2024-02-26T11:11:42;99198.88;;;11.47;66.38
77590;BME280;66746;51.328;12.332;2024-02-26T11:14:10;99194.50;;;11.45;65.89
77590;BME280;66746;51.328;12.332;2024-02-26T11:16:38;99186.50;;;11.57;66.39
77590;BME280;66746;51.328;12.332;2024-02-26T11:19:06;99184.22;;;11.66;66.38
77590;BME280;66746;51.328;12.332;2024-02-26T11:21:35;99182.13;;;11.71;67.55
77590;BME280;66746;51.328;12.332;2024-02-26T11:24:06;99179.03;;;11.77;66.04
77590;BME280;66746;51.328;12.332;2024-02-26T11:26:38;99177.97;;;11.64;66.90
77590;BME280;66746;51.328;12.332;2024-02-26T11:29:10;99174.69;;;11.58;67.46
77590;BME280;66746;51.328;12.332;2024-02-26T11:31:38;99165.91;;;11.53;67.22
77590;BME280;66746;51.328;12.332;2024-02-26T11:34:06;99170.41;;;11.54;66.91
77590;BME280;66746;51.328;12.332;2024-02-26T11:36:34;99168.06;;;11.48;67.78
77590;BME280;66746;51.328;12.332;2024-02-26T11:39:00;99167.53;;;11.42;68.86
77590;BME280;66746;51.328;12.332;2024-02-26T11:41:28;99164.03;;;11.40;68.21
77590;BME280;66746;51.328;12.332;2024-02-26T11:43:58;99167.75;;;11.39;68.87
77590;BME280;66746;51.328;12.332;2024-02-26T11:46:27;99164.56;;;11.46;68.49
77590;BME280;66746;51.328;12.332;2024-02-26T11:48:56;99167.63;;;11.40;68.57
77590;BME280;66746;51.328;12.332;2024-02-26T11:51:25;99167.06;;;11.49;67.84
77590;BME280;66746;51.328;12.332;2024-02-26T11:53:52;99171.72;;;11.47;68.72
77590;BME280;66746;51.328;12.332;2024-02-26T11:56:25;99160.84;;;11.47;69.28
77590;BME280;66746;51.328;12.332;2024-02-26T11:58:57;99170.88;;;11.47;68.48
77590;BME280;66746;51.328;12.332;2024-02-26T12:01:42;99168.63;;;11.39;68.42
77590;BME280;66746;51.328;12.332;2024-02-26T12:04:14;99169.41;;;11.26;70.14
77590;BME280;66746;51.328;12.332;2024-02-26T12:06:43;99161.19;;;11.27;69.42
77590;BME280;66746;51.328;12.332;2024-02-26T12:09:11;99165.44;;;11.47;68.93
77590;BME280;66746;51.328;12.332;2024-02-26T12:11:38;99173.47;;;11.48;68.96
77590;BME280;66746;51.328;12.332;2024-02-26T12:14:05;99169.63;;;11.52;68.85
77590;BME280;66746;51.328;12.332;2024-02-26T12:16:37;99171.72;;;11.47;69.41
77590;BME280;66746;51.328;12.332;2024-02-26T12:19:07;99177.19;;;11.32;70.54
77590;BME280;66746;51.328;12.332;2024-02-26T12:21:34;99180.31;;;11.40;70.58
77590;BME280;66746;51.328;12.332;2024-02-26T12:24:12;99183.50;;;11.32;71.76
77590;BME280;66746;51.328;12.332;2024-02-26T12:26:39;99171.41;;;11.38;71.11
77590;BME280;66746;51.328;12.332;2024-02-26T12:29:07;99171.19;;;11.56;71.55
77590;BME280;66746;51.328;12.332;2024-02-26T12:31:34;99176.19;;;11.48;70.89
77590;BME280;66746;51.328;12.332;2024-02-26T12:34:06;99178.53;;;11.54;70.67
77590;BME280;66746;51.328;12.332;2024-02-26T12:36:33;99180.28;;;11.55;71.21
77590;BME280;66746;51.328;12.332;2024-02-26T12:39:01;99177.97;;;11.64;69.81
77590;BME280;66746;51.328;12.332;2024-02-26T12:41:27;99185.34;;;11.62;70.81
77590;BME280;66746;51.328;12.332;2024-02-26T12:43:54;99188.72;;;11.67;70.85
77590;BME280;66746;51.328;12.332;2024-02-26T12:46:20;99188.50;;;11.70;69.95
77590;BME280;66746;51.328;12.332;2024-02-26T12:48:47;99198.63;;;11.82;70.06
77590;BME280;66746;51.328;12.332;2024-02-26T12:51:17;99200.94;;;11.74;69.58